Time;durP1;ratioP1;P1;durP2;ratioP2;P2;SDS_P1;SDS_P2;PMS_P1;PMS_P2;Temp;Humidity;BMP_temperature;BMP_pressure;BME280_temperature;BME280_humidity;BME280_pressure;Samples;Min_cycle;Max_cycle;Signal;HPM_P1;HPM_P2
2023/01/30 00:00:30;;;;;;;79.20;15.13;;;6.00;99.90;;;;;;5052934;28;20029;-68
2023/01/30 00:02:56;;;;;;;74.05;13.30;;;6.00;99.90;;;;;;5040097;28;20033;-68
2023/01/30 00:05:21;;;;;;;85.85;13.93;;;6.00;99.90;;;;;;5052006;28;20044;-68
2023/01/30 00:07:47;;;;;;;86.40;15.38;;;6.00;99.90;;;;;;5052910;28;20027;-68
2023/01/30 00:10:12;;;;;;;77.10;13.52;;;6.00;99.90;;;;;;5056634;28;20033;-68
2023/01/30 00:12:39;;;;;;;86.25;14.20;;;6.00;99.90;;;;;;5056183;28;20039;-68
2023/01/30 00:15:05;;;;;;;96.82;15.50;;;5.90;99.90;;;;;;5056637;28;20103;-68
2023/01/30 00:17:30;;;;;;;92.35;14.25;;;6.00;99.90;;;;;;5056430;28;20115;-68
2023/01/30 00:19:56;;;;;;;70.05;14.55;;;6.00;99.90;;;;;;5057021;28;20115;-68
2023/01/30 00:22:22;;;;;;;97.50;12.65;;;6.00;99.90;;;;;;5055705;28;20079;-68
2023/01/30 00:24:47;;;;;;;76.82;14.20;;;6.00;99.90;;;;;;5056301;28;20021;-68
2023/01/30 00:27:13;;;;;;;81.43;15.02;;;6.00;99.90;;;;;;5056306;28;20021;-68
2023/01/30 00:29:38;;;;;;;73.70;13.13;;;6.10;99.90;;;;;;5056494;28;20028;-68
2023/01/30 00:32:04;;;;;;;84.35;13.82;;;6.10;99.90;;;;;;5056272;28;20025;-68
2023/01/30 00:34:29;;;;;;;70.75;13.30;;;6.10;99.90;;;;;;5056079;28;20052;-69
2023/01/30 00:36:55;;;;;;;82.95;13.07;;;6.10;99.90;;;;;;5055774;28;20036;-68
2023/01/30 00:39:20;;;;;;;62.03;13.10;;;6.10;99.90;;;;;;5056014;28;20024;-68
2023/01/30 00:47:15;;;;;;;67.60;12.57;;;6.10;99.90;;;;;;5055911;28;20436;-68
2023/01/30 00:49:41;;;;;;;64.50;14.18;;;6.20;99.90;;;;;;5055730;28;20029;-68
2023/01/30 00:52:06;;;;;;;64.28;12.35;;;6.10;99.90;;;;;;5055921;28;20056;-68
2023/01/30 00:54:32;;;;;;;66.57;12.40;;;6.10;99.90;;;;;;5055495;28;20060;-68
2023/01/30 00:56:58;;;;;;;56.35;10.98;;;6.10;99.90;;;;;;5055661;28;20025;-68
2023/01/30 00:59:24;;;;;;;66.28;12.27;;;6.10;99.90;;;;;;5055585;28;20021;-68
2023/01/30 01:01:50;;;;;;;53.70;11.43;;;6.10;99.90;;;;;;5055562;28;20100;-68
2023/01/30 01:04:16;;;;;;;65.32;9.68;;;6.20;99.90;;;;;;5055130;28;20103;-68
2023/01/30 01:06:41;;;;;;;61.53;9.80;;;6.20;99.90;;;;;;5055735;28;20029;-68
2023/01/30 01:09:08;;;;;;;70.95;11.18;;;6.20;99.90;;;;;;5055706;28;20028;-68
2023/01/30 01:11:34;;;;;;;51.85;10.10;;;6.20;99.90;;;;;;5055448;28;20387;-69
2023/01/30 01:14:02;;;;;;;42.30;8.73;;;6.20;99.90;;;;;;5055184;28;20032;-68
2023/01/30 01:16:29;;;;;;;37.63;9.48;;;6.20;99.90;;;;;;5055452;28;20039;-68
2023/01/30 01:18:55;;;;;;;47.88;9.50;;;6.20;99.90;;;;;;5055281;28;20025;-68
2023/01/30 01:21:21;;;;;;;42.10;8.75;;;6.20;99.90;;;;;;5054407;28;20449;-68
2023/01/30 01:23:51;;;;;;;54.92;8.10;;;6.20;99.90;;;;;;5055171;28;20510;-68
2023/01/30 01:26:17;;;;;;;49.22;7.60;;;6.20;99.90;;;;;;5055407;28;20028;-69
2023/01/30 01:28:43;;;;;;;42.28;7.72;;;6.20;99.90;;;;;;5055045;28;20419;-68
2023/01/30 01:31:14;;;;;;;48.60;6.50;;;6.30;99.90;;;;;;5041086;28;20031;-68
2023/01/30 01:33:40;;;;;;;40.15;6.30;;;6.20;99.90;;;;;;5034683;28;20561;-68
2023/01/30 01:36:06;;;;;;;43.63;6.70;;;6.20;99.90;;;;;;5040885;28;20037;-68
2023/01/30 01:38:32;;;;;;;40.13;5.43;;;6.10;99.90;;;;;;5055272;28;20529;-67
2023/01/30 01:41:00;;;;;;;39.08;4.72;;;6.00;99.90;;;;;;5054447;28;20033;-67
2023/01/30 01:43:28;;;;;;;37.50;5.10;;;5.80;99.90;;;;;;5054807;28;20067;-67
2023/01/30 01:45:59;;;;;;;37.45;4.22;;;5.80;99.90;;;;;;5054312;28;20033;-67
2023/01/30 01:48:42;;;;;;;42.10;4.53;;;5.70;99.90;;;;;;5054867;28;20017;-67
2023/01/30 01:51:29;;;;;;;39.13;5.63;;;5.60;99.90;;;;;;5054725;28;20017;-67
2023/01/30 01:54:28;;;;;;;41.17;5.90;;;5.60;99.90;;;;;;5055506;28;20025;-67
2023/01/30 01:56:54;;;;;;;65.07;5.75;;;5.50;99.90;;;;;;5040958;28;20045;-67
2023/01/30 01:59:19;;;;;;;57.00;5.82;;;5.40;99.90;;;;;;5054605;28;20182;-67
2023/01/30 02:01:46;;;;;;;59.97;7.35;;;5.40;99.90;;;;;;5040553;28;20057;-67
2023/01/30 02:04:11;;;;;;;48.50;7.97;;;5.40;99.90;;;;;;5034198;28;20033;-67
2023/01/30 02:06:39;;;;;;;61.30;7.07;;;5.30;99.90;;;;;;5034359;28;20067;-67
2023/01/30 02:09:08;;;;;;;50.30;4.88;;;5.30;99.90;;;;;;5034474;28;20388;-67
2023/01/30 02:11:52;;;;;;;63.78;6.38;;;5.30;99.90;;;;;;5039010;28;20021;-67
2023/01/30 02:14:19;;;;;;;78.57;7.10;;;5.30;99.90;;;;;;5054314;28;20021;-67
2023/01/30 02:16:46;;;;;;;55.55;6.47;;;5.20;99.90;;;;;;5053870;28;20033;-67
2023/01/30 02:19:39;;;;;;;52.45;6.10;;;5.30;99.90;;;;;;5053501;28;20035;-67
2023/01/30 02:22:33;;;;;;;66.97;6.75;;;5.20;99.90;;;;;;5052688;28;20111;-68
2023/01/30 02:25:29;;;;;;;47.85;5.85;;;5.20;99.90;;;;;;5053688;28;20036;-67
2023/01/30 02:28:28;;;;;;;53.92;6.10;;;5.20;99.90;;;;;;5054126;28;20028;-67
2023/01/30 02:31:14;;;;;;;68.65;6.30;;;5.20;99.90;;;;;;5053591;28;20025;-67
2023/01/30 02:34:24;;;;;;;59.30;6.28;;;5.20;99.90;;;;;;5053452;28;20525;-67
2023/01/30 02:37:11;;;;;;;68.13;8.75;;;5.10;99.90;;;;;;5053872;28;20036;-67
2023/01/30 02:39:37;;;;;;;61.75;7.00;;;5.00;99.90;;;;;;5054036;28;20222;-67
2023/01/30 02:42:28;;;;;;;78.95;5.82;;;5.00;99.90;;;;;;5053181;28;20025;-68
2023/01/30 02:45:21;;;;;;;79.28;12.45;;;5.00;99.90;;;;;;5053603;28;20029;-67
2023/01/30 02:47:55;;;;;;;111.80;19.23;;;4.90;99.90;;;;;;5053504;28;20182;-67
2023/01/30 02:50:44;;;;;;;47.03;7.40;;;4.90;99.90;;;;;;5053472;28;20107;-67
2023/01/30 02:53:10;;;;;;;71.10;8.18;;;4.90;99.90;;;;;;5053456;28;20021;-67
2023/01/30 02:55:40;;;;;;;74.32;8.38;;;4.90;99.90;;;;;;5053333;28;20029;-67
2023/01/30 02:58:06;;;;;;;60.90;7.75;;;4.90;99.90;;;;;;5053436;28;20044;-67
2023/01/30 03:00:32;;;;;;;66.13;8.00;;;4.90;99.90;;;;;;5053578;28;20029;-67
2023/01/30 03:03:13;;;;;;;47.95;5.85;;;4.90;99.90;;;;;;5052921;28;20029;-68
2023/01/30 03:05:51;;;;;;;60.35;7.05;;;4.90;99.90;;;;;;5053867;28;20487;-67
2023/01/30 03:08:23;;;;;;;49.35;6.55;;;4.90;99.90;;;;;;5053626;28;20025;-68
2023/01/30 03:10:57;;;;;;;53.47;5.68;;;4.90;99.90;;;;;;5053247;28;20405;-67
2023/01/30 03:13:43;;;;;;;58.33;6.45;;;4.90;99.90;;;;;;5053002;28;20021;-67
2023/01/30 03:16:14;;;;;;;49.53;6.00;;;4.90;99.90;;;;;;5053060;28;20111;-68
2023/01/30 03:18:42;;;;;;;55.67;6.63;;;4.90;99.90;;;;;;5053147;28;20499;-68
2023/01/30 03:21:08;;;;;;;54.10;6.07;;;4.90;99.90;;;;;;5051570;28;20372;-68
2023/01/30 03:23:34;;;;;;;72.70;7.32;;;4.80;99.90;;;;;;5052957;28;20074;-67
2023/01/30 03:26:02;;;;;;;50.90;5.95;;;4.80;99.90;;;;;;5051779;28;20405;-68
2023/01/30 03:28:28;;;;;;;59.78;7.60;;;4.80;99.90;;;;;;5052945;28;20021;-68
2023/01/30 03:30:54;;;;;;;43.83;6.70;;;4.80;99.90;;;;;;5053019;28;20542;-68
2023/01/30 03:33:19;;;;;;;56.90;7.45;;;4.80;99.90;;;;;;5052871;28;20037;-68
2023/01/30 03:35:45;;;;;;;55.38;6.70;;;4.80;99.90;;;;;;5052750;28;20029;-68
2023/01/30 03:38:11;;;;;;;47.00;7.78;;;4.80;99.90;;;;;;5052791;28;20049;-68
2023/01/30 03:40:36;;;;;;;63.42;8.02;;;4.80;99.90;;;;;;5053067;28;20029;-68
2023/01/30 03:43:02;;;;;;;47.40;7.80;;;4.80;99.90;;;;;;5053325;28;20025;-68
2023/01/30 03:45:27;;;;;;;71.78;8.93;;;4.80;99.90;;;;;;5057007;28;20031;-68
2023/01/30 03:47:53;;;;;;;52.20;5.90;;;4.90;99.90;;;;;;5056842;28;20032;-68
2023/01/30 03:50:18;;;;;;;56.38;6.80;;;4.90;99.90;;;;;;5057085;28;20025;-67
2023/01/30 03:52:44;;;;;;;59.47;7.82;;;4.80;99.90;;;;;;5056627;28;20028;-68
2023/01/30 03:55:10;;;;;;;61.70;7.35;;;4.80;99.90;;;;;;5056828;28;20032;-68
2023/01/30 03:57:36;;;;;;;73.07;8.50;;;4.80;99.90;;;;;;5056849;28;20602;-68
2023/01/30 04:00:03;;;;;;;69.05;7.95;;;4.80;99.90;;;;;;5056578;28;20067;-68
2023/01/30 04:02:28;;;;;;;75.57;8.23;;;4.80;99.90;;;;;;5056457;28;20540;-68
2023/01/30 04:04:54;;;;;;;71.28;6.57;;;4.80;99.90;;;;;;5056384;28;20021;-68
2023/01/30 04:07:19;;;;;;;71.18;8.07;;;4.90;99.90;;;;;;5056924;28;20025;-68
2023/01/30 04:09:45;;;;;;;75.70;8.20;;;4.90;99.90;;;;;;5056402;28;20025;-68
2023/01/30 04:12:10;;;;;;;48.88;5.85;;;4.90;99.90;;;;;;5056643;28;20025;-68
2023/01/30 04:14:36;;;;;;;71.70;9.32;;;5.00;99.90;;;;;;5056232;28;20040;-68
2023/01/30 04:17:01;;;;;;;45.38;7.57;;;5.00;99.90;;;;;;5056800;28;20025;-68
2023/01/30 04:19:27;;;;;;;66.32;7.22;;;5.00;99.90;;;;;;5056947;28;20033;-68
2023/01/30 04:21:52;;;;;;;54.75;7.28;;;5.10;99.90;;;;;;5057540;28;20418;-68
2023/01/30 04:24:18;;;;;;;68.47;9.13;;;5.10;99.90;;;;;;5056870;28;20446;-68
2023/01/30 04:26:43;;;;;;;36.75;6.45;;;5.10;99.90;;;;;;5056144;28;20479;-68
2023/01/30 04:29:09;;;;;;;62.80;9.10;;;5.20;99.90;;;;;;5056306;28;20021;-68
2023/01/30 04:31:34;;;;;;;43.78;6.07;;;5.20;99.90;;;;;;5055820;28;20017;-68
2023/01/30 04:34:00;;;;;;;51.38;6.07;;;5.30;99.90;;;;;;5055817;28;20037;-68
2023/01/30 04:36:27;;;;;;;55.75;6.20;;;5.20;99.90;;;;;;5056275;28;20040;-68
2023/01/30 04:38:53;;;;;;;57.72;6.53;;;5.30;99.90;;;;;;5056003;28;20111;-68
2023/01/30 04:41:19;;;;;;;46.90;7.25;;;5.30;99.90;;;;;;5055628;28;20446;-68
2023/01/30 04:43:44;;;;;;;54.38;6.97;;;5.20;99.90;;;;;;5055694;28;20074;-68
2023/01/30 04:46:10;;;;;;;53.55;6.07;;;5.20;99.90;;;;;;5055867;28;20498;-68
2023/01/30 04:48:36;;;;;;;51.45;5.65;;;5.20;99.90;;;;;;5055664;28;20025;-68
2023/01/30 04:51:01;;;;;;;51.70;6.20;;;5.10;99.90;;;;;;5056290;28;20036;-68
2023/01/30 04:53:27;;;;;;;60.05;8.48;;;5.10;99.90;;;;;;5055466;28;20029;-68
2023/01/30 04:55:52;;;;;;;56.15;7.18;;;5.10;99.90;;;;;;5054499;28;20031;-68
2023/01/30 04:58:18;;;;;;;58.33;7.43;;;5.00;99.90;;;;;;5055498;28;20036;-68
2023/01/30 05:00:44;;;;;;;46.88;6.60;;;5.00;99.90;;;;;;5055881;28;20096;-68
2023/01/30 05:03:09;;;;;;;54.20;8.13;;;5.00;99.90;;;;;;5055494;28;20021;-68
2023/01/30 05:05:35;;;;;;;71.63;11.27;;;5.10;99.90;;;;;;5055474;28;20029;-68
2023/01/30 05:08:00;;;;;;;58.22;7.32;;;5.10;99.90;;;;;;5055472;28;20025;-68
2023/01/30 05:10:26;;;;;;;66.88;8.38;;;5.10;99.90;;;;;;5055549;28;20017;-68
2023/01/30 05:12:51;;;;;;;75.97;10.00;;;5.10;99.90;;;;;;5055609;28;20044;-68
2023/01/30 05:15:17;;;;;;;76.28;10.15;;;5.20;99.90;;;;;;5054025;28;20442;-68
2023/01/30 05:17:43;;;;;;;66.15;8.95;;;5.20;99.90;;;;;;5055520;28;20483;-68
2023/01/30 05:20:12;;;;;;;77.05;7.70;;;5.20;99.90;;;;;;5055132;28;20060;-68
2023/01/30 05:22:37;;;;;;;41.10;7.20;;;5.20;99.90;;;;;;5055091;28;20051;-68
2023/01/30 05:25:03;;;;;;;69.63;8.00;;;5.20;99.90;;;;;;5073547;28;20471;-68
2023/01/30 05:27:29;;;;;;;60.55;7.63;;;5.30;99.90;;;;;;5074984;28;20070;-68
2023/01/30 05:29:54;;;;;;;66.32;8.57;;;5.20;99.90;;;;;;5075203;28;20478;-68
2023/01/30 05:32:20;;;;;;;67.63;9.13;;;5.10;99.90;;;;;;5074778;28;20491;-68
2023/01/30 05:34:48;;;;;;;56.30;6.75;;;5.10;99.90;;;;;;5074897;28;20062;-68
2023/01/30 05:37:14;;;;;;;73.43;9.50;;;5.10;99.90;;;;;;5075007;28;20478;-68
2023/01/30 05:39:40;;;;;;;56.17;6.93;;;5.10;99.90;;;;;;5066576;28;20569;-68
2023/01/30 05:42:05;;;;;;;63.22;8.32;;;5.10;99.90;;;;;;5055056;28;20029;-68
2023/01/30 05:44:31;;;;;;;79.05;16.88;;;5.10;99.90;;;;;;5054591;28;20055;-68
2023/01/30 05:46:56;;;;;;;95.38;34.35;;;5.10;99.90;;;;;;5054957;28;20025;-68
2023/01/30 05:49:22;;;;;;;70.18;12.00;;;5.10;99.90;;;;;;5054511;28;20083;-68
2023/01/30 05:51:48;;;;;;;96.47;32.10;;;5.10;99.90;;;;;;5054633;28;20025;-68
2023/01/30 05:54:13;;;;;;;94.93;19.70;;;5.10;99.90;;;;;;5054328;28;20021;-68
2023/01/30 05:56:39;;;;;;;130.63;37.35;;;5.10;99.90;;;;;;5054763;28;20035;-68
2023/01/30 05:59:04;;;;;;;61.55;12.70;;;5.10;99.90;;;;;;5054322;28;20031;-68
2023/01/30 06:01:30;;;;;;;56.78;7.85;;;5.10;99.90;;;;;;5054896;28;20479;-68
2023/01/30 06:03:57;;;;;;;57.95;8.80;;;5.10;99.90;;;;;;5053986;28;20101;-68
2023/01/30 06:06:23;;;;;;;69.78;7.15;;;5.20;99.90;;;;;;5053985;28;20452;-68
2023/01/30 06:08:53;;;;;;;50.05;8.48;;;5.20;99.90;;;;;;5054514;28;20061;-68
2023/01/30 06:11:18;;;;;;;46.90;8.68;;;5.30;99.90;;;;;;5054190;28;20021;-68
2023/01/30 06:13:44;;;;;;;57.28;7.80;;;5.30;99.90;;;;;;5054314;28;20441;-69
2023/01/30 06:16:11;;;;;;;70.40;8.98;;;5.30;99.90;;;;;;5054250;28;20115;-68
2023/01/30 06:18:37;;;;;;;52.95;6.65;;;5.20;99.90;;;;;;5054223;28;20028;-69
2023/01/30 06:21:03;;;;;;;72.68;6.72;;;5.30;99.90;;;;;;5053960;28;20032;-69
2023/01/30 06:23:29;;;;;;;71.47;8.60;;;5.40;99.90;;;;;;5053966;28;20036;-68
2023/01/30 06:25:54;;;;;;;50.50;7.70;;;5.40;99.90;;;;;;5054088;28;20025;-68
2023/01/30 06:28:21;;;;;;;62.72;7.55;;;5.50;99.90;;;;;;5053738;28;20061;-68
2023/01/30 06:30:47;;;;;;;85.82;15.07;;;5.50;99.90;;;;;;5053039;28;20021;-68
2023/01/30 06:33:13;;;;;;;62.25;8.50;;;5.50;99.90;;;;;;5053581;28;20029;-68
2023/01/30 06:35:40;;;;;;;77.97;15.32;;;5.60;99.90;;;;;;5053998;28;20060;-68
2023/01/30 06:38:10;;;;;;;64.72;12.77;;;5.70;99.90;;;;;;5053917;28;20233;-68
2023/01/30 06:40:47;;;;;;;76.75;10.63;;;5.60;99.90;;;;;;5053676;28;20029;-68
2023/01/30 06:43:13;;;;;;;84.28;10.43;;;5.40;99.90;;;;;;5053552;28;20483;-69
2023/01/30 06:45:39;;;;;;;71.63;9.40;;;5.40;99.90;;;;;;5055073;28;20027;-69
2023/01/30 06:48:05;;;;;;;78.88;10.32;;;5.30;99.90;;;;;;5052653;28;20111;-68
2023/01/30 06:50:31;;;;;;;86.18;10.50;;;5.30;99.90;;;;;;5053733;28;20055;-68
2023/01/30 06:53:01;;;;;;;81.10;12.15;;;5.20;99.90;;;;;;5053405;28;20021;-69
2023/01/30 06:55:27;;;;;;;65.50;10.38;;;5.30;99.90;;;;;;5053735;28;20024;-68
2023/01/30 06:58:13;;;;;;;75.10;10.85;;;5.20;99.90;;;;;;5053151;28;20029;-68
2023/01/30 07:00:41;;;;;;;78.65;11.35;;;5.20;99.90;;;;;;5053611;28;20029;-68
2023/01/30 07:03:11;;;;;;;72.72;10.15;;;5.30;99.90;;;;;;5053211;28;20031;-68
2023/01/30 07:05:39;;;;;;;58.75;10.30;;;5.30;99.90;;;;;;5053413;28;20382;-69
2023/01/30 07:08:04;;;;;;;56.88;8.30;;;5.30;99.90;;;;;;5052917;28;20017;-69
2023/01/30 07:10:31;;;;;;;75.80;9.52;;;5.30;99.90;;;;;;5053149;28;20375;-69
2023/01/30 07:12:57;;;;;;;74.78;9.93;;;5.40;99.90;;;;;;5053107;28;20502;-69
2023/01/30 07:15:23;;;;;;;78.90;10.10;;;5.50;99.90;;;;;;5052866;28;20041;-68
2023/01/30 07:17:48;;;;;;;72.20;7.70;;;5.50;99.90;;;;;;5052362;28;20033;-68
2023/01/30 07:20:14;;;;;;;63.22;7.07;;;5.40;99.90;;;;;;5052994;28;20379;-67
2023/01/30 07:22:39;;;;;;;33.47;4.32;;;5.20;99.90;;;;;;5052621;28;20035;-67
2023/01/30 07:25:06;;;;;;;36.35;3.65;;;4.50;99.90;;;;;;5052780;28;20104;-67
2023/01/30 07:27:32;;;;;;;23.25;3.03;;;4.00;99.90;;;;;;5051751;28;20029;-67
2023/01/30 07:29:57;;;;;;;30.35;4.85;;;3.40;99.90;;;;;;5053116;28;20109;-67
2023/01/30 07:32:23;;;;;;;35.97;5.13;;;3.20;99.90;;;;;;5052957;28;20053;-67
2023/01/30 07:34:49;;;;;;;46.30;5.00;;;3.30;99.90;;;;;;5052484;28;20032;-67
2023/01/30 07:37:14;;;;;;;28.77;4.20;;;3.30;99.90;;;;;;5053306;28;20509;-67
2023/01/30 07:39:40;;;;;;;28.08;3.55;;;3.30;99.90;;;;;;5052957;28;20383;-67
2023/01/30 07:42:06;;;;;;;38.95;4.95;;;3.30;99.90;;;;;;5051953;28;20096;-67
2023/01/30 07:44:32;;;;;;;33.95;4.07;;;3.20;99.90;;;;;;5052692;28;20569;-67
2023/01/30 07:46:58;;;;;;;32.28;3.83;;;3.30;99.90;;;;;;5052921;28;20017;-67
2023/01/30 07:49:24;;;;;;;32.28;3.65;;;3.30;99.90;;;;;;5052917;28;20486;-67
2023/01/30 07:51:50;;;;;;;27.40;2.88;;;3.10;99.90;;;;;;5052875;28;20025;-67
2023/01/30 07:54:16;;;;;;;38.95;4.25;;;3.20;99.90;;;;;;5052618;28;20029;-67
2023/01/30 07:56:41;;;;;;;34.92;2.97;;;3.10;99.90;;;;;;5052562;28;20438;-67
2023/01/30 07:59:09;;;;;;;20.17;3.75;;;3.10;99.90;;;;;;5052178;28;20087;-67
2023/01/30 08:01:35;;;;;;;32.08;4.18;;;3.10;99.90;;;;;;5052968;28;20094;-67
2023/01/30 08:04:00;;;;;;;43.97;7.95;;;3.10;99.90;;;;;;5052252;28;20471;-67
2023/01/30 08:06:26;;;;;;;46.20;8.77;;;3.20;99.90;;;;;;5052698;28;20036;-67
2023/01/30 08:08:51;;;;;;;34.97;4.60;;;3.20;99.90;;;;;;5052658;28;20021;-67
2023/01/30 08:11:17;;;;;;;43.00;4.63;;;3.20;99.90;;;;;;5052576;28;20075;-67
2023/01/30 08:13:43;;;;;;;31.55;4.30;;;3.20;99.90;;;;;;5052668;28;20032;-67
2023/01/30 08:16:08;;;;;;;41.50;6.85;;;3.20;99.90;;;;;;5052495;28;20025;-67
2023/01/30 08:18:34;;;;;;;34.30;5.65;;;3.30;99.90;;;;;;5052542;28;20017;-68
2023/01/30 08:21:01;;;;;;;34.78;3.45;;;3.30;99.90;;;;;;5052458;28;20063;-67
2023/01/30 08:23:27;;;;;;;46.95;6.32;;;3.30;99.90;;;;;;5052407;28;20140;-67
2023/01/30 08:25:57;;;;;;;44.58;6.43;;;3.40;99.90;;;;;;5052169;28;20092;-67
2023/01/30 08:28:23;;;;;;;52.63;5.88;;;3.40;99.90;;;;;;5052457;28;20108;-67
2023/01/30 08:30:48;;;;;;;50.28;6.18;;;3.60;99.90;;;;;;5056202;28;20155;-68
2023/01/30 08:33:14;;;;;;;74.75;7.68;;;3.80;99.90;;;;;;5055778;28;20433;-68
2023/01/30 08:35:40;;;;;;;66.75;8.52;;;3.90;99.90;;;;;;5056082;28;20036;-68
2023/01/30 08:38:07;;;;;;;69.68;7.20;;;4.00;99.90;;;;;;5055921;28;20501;-67
2023/01/30 08:40:34;;;;;;;48.35;6.43;;;4.20;99.90;;;;;;5055803;28;20032;-67
2023/01/30 08:42:59;;;;;;;67.35;9.70;;;4.30;99.90;;;;;;5055499;28;20437;-67
2023/01/30 08:45:25;;;;;;;69.25;7.75;;;4.40;99.90;;;;;;5055930;28;20017;-67
2023/01/30 08:47:50;;;;;;;58.38;7.55;;;4.50;99.90;;;;;;5055695;28;20056;-67
2023/01/30 08:50:16;;;;;;;82.10;22.02;;;4.50;99.90;;;;;;5055241;28;20013;-68
2023/01/30 08:52:41;;;;;;;85.25;18.70;;;4.50;99.90;;;;;;5055484;28;20372;-67
2023/01/30 08:55:08;;;;;;;72.80;23.08;;;4.60;99.90;;;;;;5056413;28;20056;-67
2023/01/30 08:57:34;;;;;;;55.65;10.73;;;4.60;99.90;;;;;;5055933;28;20479;-67
2023/01/30 08:59:59;;;;;;;46.88;8.80;;;4.70;99.90;;;;;;5055886;28;20090;-67
2023/01/30 09:02:25;;;;;;;87.93;23.27;;;4.80;99.90;;;;;;5054474;28;20491;-67
2023/01/30 09:04:50;;;;;;;353.77;132.52;;;4.90;99.90;;;;;;5055769;28;20021;-67
2023/01/30 09:07:16;;;;;;;68.18;18.13;;;5.10;99.90;;;;;;5056381;28;20021;-67
2023/01/30 09:09:41;;;;;;;55.90;12.27;;;5.30;99.90;;;;;;5056875;28;20039;-67
2023/01/30 09:12:07;;;;;;;56.80;8.23;;;5.40;99.90;;;;;;5056521;28;20096;-68
2023/01/30 09:14:32;;;;;;;62.40;11.05;;;5.50;99.90;;;;;;5055493;28;20501;-68
2023/01/30 09:16:58;;;;;;;40.72;7.07;;;5.50;99.90;;;;;;5056141;28;20418;-67
2023/01/30 09:19:25;;;;;;;27.77;5.43;;;5.40;99.90;;;;;;5055529;28;20025;-67
2023/01/30 09:21:52;;;;;;;25.70;4.15;;;4.90;99.90;;;;;;5055510;28;20075;-67
2023/01/30 09:24:18;;;;;;;11.10;1.80;;;4.60;99.90;;;;;;5055487;28;20029;-67
2023/01/30 09:26:44;;;;;;;13.98;1.80;;;3.50;99.90;;;;;;5055426;28;20047;-67
2023/01/30 09:29:13;;;;;;;13.43;1.98;;;3.10;99.90;;;;;;5055353;28;20538;-67
2023/01/30 09:31:39;;;;;;;22.35;1.75;;;3.20;99.90;;;;;;5055537;28;20029;-67
2023/01/30 09:34:05;;;;;;;22.77;2.55;;;3.30;99.90;;;;;;5055107;28;20033;-67
2023/01/30 09:36:31;;;;;;;16.02;1.88;;;3.40;99.90;;;;;;5055186;28;20033;-67
2023/01/30 09:38:56;;;;;;;22.58;3.00;;;3.30;99.90;;;;;;5055101;28;20029;-67
2023/01/30 09:41:51;;;;;;;16.77;2.38;;;3.40;99.90;;;;;;5054475;28;20087;-67
2023/01/30 09:44:44;;;;;;;42.85;4.35;;;3.60;99.90;;;;;;5055181;28;20029;-67
2023/01/30 09:47:12;;;;;;;30.07;4.30;;;3.90;99.90;;;;;;5055279;28;20111;-67
2023/01/30 09:49:51;;;;;;;59.97;6.90;;;4.20;99.90;;;;;;5054904;28;20063;-68
2023/01/30 09:52:27;;;;;;;49.15;5.25;;;4.50;99.90;;;;;;5055452;28;20020;-67
2023/01/30 09:55:23;;;;;;;57.75;5.53;;;4.70;99.90;;;;;;5054811;28;20051;-67
2023/01/30 09:57:50;;;;;;;43.05;6.18;;;4.80;99.90;;;;;;5052463;28;20036;-67
2023/01/30 10:00:21;;;;;;;59.55;7.70;;;4.80;99.90;;;;;;5054786;28;20028;-67
2023/01/30 10:02:54;;;;;;;66.57;9.82;;;4.80;99.90;;;;;;5054710;28;20028;-67
2023/01/30 10:05:23;;;;;;;68.07;9.20;;;4.80;99.90;;;;;;5054955;28;20107;-67
2023/01/30 10:08:04;;;;;;;49.47;6.47;;;4.80;99.90;;;;;;5054613;28;20028;-67
2023/01/30 10:10:45;;;;;;;41.55;9.38;;;4.80;99.90;;;;;;5054831;28;20025;-67
2023/01/30 10:13:35;;;;;;;64.68;13.43;;;4.90;99.90;;;;;;5054811;28;20028;-67
2023/01/30 10:16:29;;;;;;;52.33;7.65;;;5.00;99.90;;;;;;5054840;28;20033;-68
2023/01/30 10:19:37;;;;;;;50.72;7.38;;;5.00;99.90;;;;;;5054835;28;20029;-67
2023/01/30 10:22:14;;;;;;;43.55;8.18;;;5.00;99.90;;;;;;5054668;28;20029;-67
2023/01/30 10:24:48;;;;;;;45.47;6.03;;;5.00;99.90;;;;;;5054428;28;20021;-67
2023/01/30 10:27:16;;;;;;;49.70;7.05;;;4.80;99.90;;;;;;5054482;28;20060;-67
2023/01/30 10:29:47;;;;;;;38.72;5.65;;;4.70;99.90;;;;;;5054140;28;20542;-67
2023/01/30 10:32:29;;;;;;;27.42;4.70;;;4.70;99.90;;;;;;5054749;28;20371;-67
2023/01/30 10:34:59;;;;;;;49.92;6.78;;;4.80;99.90;;;;;;5053901;28;20024;-67
2023/01/30 10:37:39;;;;;;;45.85;5.93;;;4.90;99.90;;;;;;5054294;28;20029;-67
2023/01/30 10:40:24;;;;;;;34.00;5.88;;;5.10;99.90;;;;;;5054564;28;20021;-67
2023/01/30 10:43:01;;;;;;;40.97;5.78;;;5.10;99.90;;;;;;5054384;28;20025;-67
2023/01/30 10:45:37;;;;;;;39.25;4.57;;;5.00;99.90;;;;;;5054016;28;20028;-67
2023/01/30 10:48:31;;;;;;;40.55;6.25;;;5.00;99.90;;;;;;5053919;28;20029;-67
2023/01/30 10:51:04;;;;;;;42.67;6.80;;;5.10;99.90;;;;;;5022823;28;20029;-67
2023/01/30 10:54:01;;;;;;;51.40;7.03;;;5.30;99.90;;;;;;5052885;28;20055;-67
2023/01/30 10:56:39;;;;;;;51.38;8.00;;;5.50;99.90;;;;;;5054045;28;20035;-67
2023/01/30 10:59:39;;;;;;;59.70;6.88;;;5.70;99.90;;;;;;5052539;28;20429;-68
2023/01/30 11:02:32;;;;;;;54.50;6.07;;;6.10;99.90;;;;;;5053829;28;20028;-67
2023/01/30 11:05:14;;;;;;;34.72;5.90;;;6.10;99.90;;;;;;5053575;28;20043;-67
2023/01/30 11:07:42;;;;;;;41.08;5.72;;;5.90;99.90;;;;;;5053664;28;20024;-67
2023/01/30 11:10:17;;;;;;;39.92;6.15;;;5.30;99.90;;;;;;5053533;28;20029;-67
2023/01/30 11:12:42;;;;;;;36.05;4.40;;;5.00;99.90;;;;;;5053438;28;20091;-67
2023/01/30 11:15:09;;;;;;;25.35;2.92;;;4.80;99.90;;;;;;5053606;28;20364;-67
2023/01/30 11:17:44;;;;;;;17.83;1.88;;;4.60;99.90;;;;;;5053760;28;20070;-67
2023/01/30 11:20:22;;;;;;;25.52;3.85;;;4.50;99.90;;;;;;5053417;28;20025;-67
2023/01/30 11:23:21;;;;;;;15.38;2.70;;;4.50;99.90;;;;;;5053572;28;20494;-67
2023/01/30 11:25:50;;;;;;;13.93;1.60;;;4.50;99.90;;;;;;5053549;28;20025;-67
2023/01/30 11:28:18;;;;;;;22.27;3.97;;;4.60;99.90;;;;;;5053844;28;20017;-67
2023/01/30 11:30:57;;;;;;;34.20;3.65;;;4.70;99.90;;;;;;5053324;28;20021;-67
2023/01/30 11:33:30;;;;;;;33.10;3.72;;;4.80;99.90;;;;;;5054235;28;20479;-67
2023/01/30 11:35:59;;;;;;;37.67;7.10;;;4.90;99.90;;;;;;5052644;28;20380;-68
2023/01/30 11:38:34;;;;;;;47.05;13.73;;;5.00;99.90;;;;;;5053362;28;20033;-67
2023/01/30 11:41:20;;;;;;;45.92;7.65;;;5.10;99.90;;;;;;5053447;28;20063;-68
2023/01/30 11:43:47;;;;;;;47.17;6.68;;;5.30;99.90;;;;;;5053213;28;20036;-68
2023/01/30 11:46:17;;;;;;;63.33;10.80;;;5.40;99.90;;;;;;5053688;28;20023;-67
2023/01/30 11:48:52;;;;;;;41.50;4.97;;;5.60;99.90;;;;;;5053129;28;20017;-67
2023/01/30 11:51:19;;;;;;;64.72;6.30;;;5.80;99.90;;;;;;5051932;28;20411;-68
2023/01/30 11:53:53;;;;;;;82.05;21.33;;;5.90;99.90;;;;;;5053242;28;20021;-68
2023/01/30 11:56:51;;;;;;;48.30;7.15;;;6.10;99.90;;;;;;5053340;28;20150;-68
2023/01/30 11:59:41;;;;;;;54.08;5.78;;;6.30;99.90;;;;;;5040173;28;20041;-68
2023/01/30 12:02:28;;;;;;;54.42;15.23;;;6.40;99.90;;;;;;5037660;28;20114;-68
2023/01/30 12:04:58;;;;;;;70.97;22.45;;;6.50;99.90;;;;;;5035200;28;20115;-68
2023/01/30 12:07:28;;;;;;;60.88;8.38;;;6.60;99.90;;;;;;5039795;28;20030;-68
2023/01/30 12:09:56;;;;;;;47.33;7.13;;;6.60;99.90;;;;;;5037006;28;20163;-68
2023/01/30 12:12:44;;;;;;;27.27;4.05;;;6.40;99.90;;;;;;5036702;28;20029;-68
2023/01/30 12:15:30;;;;;;;11.10;1.80;;;6.10;99.90;;;;;;5036878;28;20025;-68
2023/01/30 12:18:07;;;;;;;27.73;2.13;;;5.60;99.90;;;;;;5037069;28;20029;-67
2023/01/30 12:20:58;;;;;;;9.40;2.17;;;5.20;99.90;;;;;;5047654;28;20024;-67
2023/01/30 12:23:37;;;;;;;19.52;2.83;;;4.90;99.90;;;;;;5056864;28;20021;-67
2023/01/30 12:26:17;;;;;;;23.77;5.22;;;4.70;99.90;;;;;;5056948;28;20039;-67
2023/01/30 12:28:53;;;;;;;33.60;10.57;;;4.50;99.90;;;;;;5057154;28;20025;-67
2023/01/30 12:31:26;;;;;;;18.38;4.97;;;4.40;99.90;;;;;;5056758;28;20029;-67
2023/01/30 12:33:54;;;;;;;26.55;3.65;;;4.40;99.90;;;;;;5056235;28;20435;-67
2023/01/30 12:36:31;;;;;;;101.97;36.65;;;4.50;99.90;;;;;;5056250;28;20052;-67
2023/01/30 12:39:12;;;;;;;61.88;20.15;;;4.50;99.90;;;;;;5056503;28;20128;-67
2023/01/30 12:41:59;;;;;;;87.72;23.80;;;4.60;99.90;;;;;;5056180;28;20035;-67
2023/01/30 12:44:56;;;;;;;52.70;13.50;;;4.80;99.90;;;;;;5056076;28;20056;-67
2023/01/30 12:47:49;;;;;;;113.75;21.73;;;5.00;99.90;;;;;;5050576;28;20128;-67
2023/01/30 12:50:29;;;;;;;102.10;30.02;;;5.40;99.90;;;;;;5056496;28;20017;-67
2023/01/30 12:53:10;;;;;;;86.03;21.95;;;5.90;99.90;;;;;;5056006;28;20108;-67
2023/01/30 12:56:10;;;;;;;71.80;14.55;;;6.20;99.90;;;;;;5055859;28;20033;-67
2023/01/30 12:58:54;;;;;;;145.52;37.67;;;6.40;99.90;;;;;;5056309;28;20108;-67
2023/01/30 13:01:44;;;;;;;78.15;13.38;;;6.50;99.90;;;;;;5056222;28;20529;-67
2023/01/30 13:04:47;;;;;;;92.97;12.48;;;6.50;99.90;;;;;;5055662;28;20052;-67
2023/01/30 13:07:37;;;;;;;69.47;15.20;;;6.40;99.90;;;;;;5056613;28;20368;-67